sensor_id;sensor_type;location;lat;lon;timestamp;P1;durP1;ratioP1;P2;durP2;ratioP2
6739;SDS011;3407;49.882;10.920;2023-02-28T00:00:35;5.20;;;4.70;;
6739;SDS011;3407;49.882;10.920;2023-02-28T00:05:32;5.87;;;5.37;;
6739;SDS011;3407;49.882;10.920;2023-02-28T00:10:28;4.80;;;4.40;;
6739;SDS011;3407;49.882;10.920;2023-02-28T00:15:25;5.30;;;4.90;;
6739;SDS011;3407;49.882;10.920;2023-02-28T00:20:21;5.20;;;4.73;;
6739;SDS011;3407;49.882;10.920;2023-02-28T00:25:18;5.20;;;4.77;;
6739;SDS011;3407;49.882;10.920;2023-02-28T00:30:20;5.67;;;4.90;;
6739;SDS011;3407;49.882;10.920;2023-02-28T00:35:17;5.27;;;4.83;;
6739;SDS011;3407;49.882;10.920;2023-02-28T00:40:13;4.60;;;4.20;;
6739;SDS011;3407;49.882;10.920;2023-02-28T00:45:08;4.40;;;4.10;;
6739;SDS011;3407;49.882;10.920;2023-02-28T00:50:04;5.20;;;4.80;;
6739;SDS011;3407;49.882;10.920;2023-02-28T00:55:00;5.00;;;4.60;;
6739;SDS011;3407;49.882;10.920;2023-02-28T00:59:56;4.50;;;4.10;;
6739;SDS011;3407;49.882;10.920;2023-02-28T01:04:52;4.80;;;4.40;;
6739;SDS011;3407;49.882;10.920;2023-02-28T01:09:47;5.03;;;4.60;;
6739;SDS011;3407;49.882;10.920;2023-02-28T01:14:43;5.27;;;4.77;;
6739;SDS011;3407;49.882;10.920;2023-02-28T01:19:38;4.80;;;4.50;;
6739;SDS011;3407;49.882;10.920;2023-02-28T01:24:34;5.90;;;5.30;;
6739;SDS011;3407;49.882;10.920;2023-02-28T01:29:29;5.10;;;4.67;;
6739;SDS011;3407;49.882;10.920;2023-02-28T01:34:25;6.43;;;4.60;;
6739;SDS011;3407;49.882;10.920;2023-02-28T01:39:20;5.17;;;4.77;;
6739;SDS011;3407;49.882;10.920;2023-02-28T01:49:49;5.50;;;5.00;;
6739;SDS011;3407;49.882;10.920;2023-02-28T01:54:48;7.63;;;5.47;;
6739;SDS011;3407;49.882;10.920;2023-02-28T01:59:52;5.60;;;5.10;;
6739;SDS011;3407;49.882;10.920;2023-02-28T02:04:54;5.97;;;5.17;;
6739;SDS011;3407;49.882;10.920;2023-02-28T02:09:59;5.53;;;5.13;;
6739;SDS011;3407;49.882;10.920;2023-02-28T02:20:48;8.00;;;5.60;;
6739;SDS011;3407;49.882;10.920;2023-02-28T02:26:11;6.57;;;5.00;;
6739;SDS011;3407;49.882;10.920;2023-02-28T02:31:38;5.57;;;5.17;;
6739;SDS011;3407;49.882;10.920;2023-02-28T02:36:51;6.37;;;5.20;;
6739;SDS011;3407;49.882;10.920;2023-02-28T02:41:54;7.70;;;6.13;;
6739;SDS011;3407;49.882;10.920;2023-02-28T02:47:01;5.67;;;5.07;;
6739;SDS011;3407;49.882;10.920;2023-02-28T02:52:05;5.90;;;5.30;;
6739;SDS011;3407;49.882;10.920;2023-02-28T02:57:05;6.10;;;5.53;;
6739;SDS011;3407;49.882;10.920;2023-02-28T03:02:08;6.43;;;5.83;;
6739;SDS011;3407;49.882;10.920;2023-02-28T03:07:09;6.03;;;5.43;;
6739;SDS011;3407;49.882;10.920;2023-02-28T03:12:04;5.63;;;5.03;;
6739;SDS011;3407;49.882;10.920;2023-02-28T03:27:46;5.90;;;5.30;;
6739;SDS011;3407;49.882;10.920;2023-02-28T03:32:58;7.30;;;5.47;;
6739;SDS011;3407;49.882;10.920;2023-02-28T03:37:55;6.73;;;6.03;;
6739;SDS011;3407;49.882;10.920;2023-02-28T03:43:04;5.87;;;5.37;;
6739;SDS011;3407;49.882;10.920;2023-02-28T03:48:10;5.43;;;4.93;;
6739;SDS011;3407;49.882;10.920;2023-02-28T03:53:11;7.77;;;5.80;;
6739;SDS011;3407;49.882;10.920;2023-02-28T03:58:11;6.00;;;5.47;;
6739;SDS011;3407;49.882;10.920;2023-02-28T04:03:20;5.93;;;5.40;;
6739;SDS011;3407;49.882;10.920;2023-02-28T04:08:15;5.97;;;5.37;;
6739;SDS011;3407;49.882;10.920;2023-02-28T04:13:11;6.10;;;5.50;;
6739;SDS011;3407;49.882;10.920;2023-02-28T04:18:06;8.70;;;5.27;;
6739;SDS011;3407;49.882;10.920;2023-02-28T04:23:02;6.80;;;5.70;;
6739;SDS011;3407;49.882;10.920;2023-02-28T04:27:58;6.10;;;5.53;;
6739;SDS011;3407;49.882;10.920;2023-02-28T04:32:53;8.27;;;6.07;;
6739;SDS011;3407;49.882;10.920;2023-02-28T04:37:48;6.67;;;5.33;;
6739;SDS011;3407;49.882;10.920;2023-02-28T04:42:44;5.83;;;5.33;;
6739;SDS011;3407;49.882;10.920;2023-02-28T04:47:39;5.87;;;5.37;;
6739;SDS011;3407;49.882;10.920;2023-02-28T04:52:35;7.60;;;5.63;;
6739;SDS011;3407;49.882;10.920;2023-02-28T04:57:30;8.67;;;6.10;;
6739;SDS011;3407;49.882;10.920;2023-02-28T05:02:26;6.07;;;5.47;;
6739;SDS011;3407;49.882;10.920;2023-02-28T05:07:21;5.50;;;5.00;;
6739;SDS011;3407;49.882;10.920;2023-02-28T05:12:17;10.40;;;5.77;;
6739;SDS011;3407;49.882;10.920;2023-02-28T05:17:12;8.03;;;6.30;;
6739;SDS011;3407;49.882;10.920;2023-02-28T05:22:12;6.40;;;5.80;;
6739;SDS011;3407;49.882;10.920;2023-02-28T05:27:12;10.60;;;5.70;;
6739;SDS011;3407;49.882;10.920;2023-02-28T05:32:11;7.13;;;6.30;;
6739;SDS011;3407;49.882;10.920;2023-02-28T05:37:14;5.87;;;5.40;;
6739;SDS011;3407;49.882;10.920;2023-02-28T05:42:10;6.40;;;5.80;;
6739;SDS011;3407;49.882;10.920;2023-02-28T05:47:06;7.60;;;6.33;;
6739;SDS011;3407;49.882;10.920;2023-02-28T05:52:01;7.90;;;6.23;;
6739;SDS011;3407;49.882;10.920;2023-02-28T05:56:57;5.77;;;5.20;;
6739;SDS011;3407;49.882;10.920;2023-02-28T06:01:52;19.47;;;14.07;;
6739;SDS011;3407;49.882;10.920;2023-02-28T06:06:48;7.33;;;5.80;;
6739;SDS011;3407;49.882;10.920;2023-02-28T06:11:44;7.90;;;5.80;;
6739;SDS011;3407;49.882;10.920;2023-02-28T06:16:40;8.60;;;6.87;;
6739;SDS011;3407;49.882;10.920;2023-02-28T06:21:35;7.60;;;6.10;;
6739;SDS011;3407;49.882;10.920;2023-02-28T06:26:31;7.57;;;6.13;;
6739;SDS011;3407;49.882;10.920;2023-02-28T06:31:27;7.07;;;6.27;;
6739;SDS011;3407;49.882;10.920;2023-02-28T06:36:23;6.77;;;5.90;;
6739;SDS011;3407;49.882;10.920;2023-02-28T06:41:19;8.27;;;6.23;;
6739;SDS011;3407;49.882;10.920;2023-02-28T06:46:15;7.00;;;6.40;;
6739;SDS011;3407;49.882;10.920;2023-02-28T06:51:12;9.40;;;6.43;;
6739;SDS011;3407;49.882;10.920;2023-02-28T06:56:11;8.70;;;6.50;;
6739;SDS011;3407;49.882;10.920;2023-02-28T07:01:08;7.70;;;6.83;;
6739;SDS011;3407;49.882;10.920;2023-02-28T07:06:04;7.80;;;6.97;;
6739;SDS011;3407;49.882;10.920;2023-02-28T07:11:00;7.27;;;6.50;;
6739;SDS011;3407;49.882;10.920;2023-02-28T07:16:03;7.70;;;6.90;;
6739;SDS011;3407;49.882;10.920;2023-02-28T07:21:03;8.23;;;6.60;;
6739;SDS011;3407;49.882;10.920;2023-02-28T07:26:00;9.60;;;6.73;;
6739;SDS011;3407;49.882;10.920;2023-02-28T07:30:55;10.67;;;7.30;;
6739;SDS011;3407;49.882;10.920;2023-02-28T07:35:51;7.53;;;6.37;;
6739;SDS011;3407;49.882;10.920;2023-02-28T07:40:47;6.93;;;6.23;;
6739;SDS011;3407;49.882;10.920;2023-02-28T07:45:42;6.87;;;5.87;;
6739;SDS011;3407;49.882;10.920;2023-02-28T07:50:38;8.17;;;6.03;;
6739;SDS011;3407;49.882;10.920;2023-02-28T07:55:33;8.90;;;6.27;;
6739;SDS011;3407;49.882;10.920;2023-02-28T08:00:29;8.70;;;5.40;;
6739;SDS011;3407;49.882;10.920;2023-02-28T08:05:26;6.33;;;5.27;;
6739;SDS011;3407;49.882;10.920;2023-02-28T08:10:22;7.83;;;5.57;;
6739;SDS011;3407;49.882;10.920;2023-02-28T08:15:18;8.10;;;5.77;;
6739;SDS011;3407;49.882;10.920;2023-02-28T08:20:14;6.33;;;5.00;;
6739;SDS011;3407;49.882;10.920;2023-02-28T08:25:09;6.40;;;5.10;;
6739;SDS011;3407;49.882;10.920;2023-02-28T08:30:06;5.87;;;4.80;;
6739;SDS011;3407;49.882;10.920;2023-02-28T08:35:02;6.50;;;5.80;;
6739;SDS011;3407;49.882;10.920;2023-02-28T08:39:58;7.50;;;5.83;;
6739;SDS011;3407;49.882;10.920;2023-02-28T08:44:54;6.87;;;5.50;;
6739;SDS011;3407;49.882;10.920;2023-02-28T08:49:49;10.03;;;5.90;;
6739;SDS011;3407;49.882;10.920;2023-02-28T08:54:45;6.47;;;5.17;;
6739;SDS011;3407;49.882;10.920;2023-02-28T08:59:40;7.30;;;5.83;;
6739;SDS011;3407;49.882;10.920;2023-02-28T09:04:36;7.57;;;5.40;;
6739;SDS011;3407;49.882;10.920;2023-02-28T09:09:32;7.83;;;5.47;;
6739;SDS011;3407;49.882;10.920;2023-02-28T09:14:27;10.70;;;5.27;;
6739;SDS011;3407;49.882;10.920;2023-02-28T09:19:23;6.20;;;5.60;;
6739;SDS011;3407;49.882;10.920;2023-02-28T09:24:19;9.03;;;6.20;;
6739;SDS011;3407;49.882;10.920;2023-02-28T09:29:15;7.00;;;6.30;;
6739;SDS011;3407;49.882;10.920;2023-02-28T09:34:12;7.90;;;5.87;;
6739;SDS011;3407;49.882;10.920;2023-02-28T09:39:07;7.70;;;5.77;;
6739;SDS011;3407;49.882;10.920;2023-02-28T09:44:04;6.07;;;5.50;;
6739;SDS011;3407;49.882;10.920;2023-02-28T09:49:06;6.37;;;5.20;;
6739;SDS011;3407;49.882;10.920;2023-02-28T09:54:09;10.93;;;6.50;;
6739;SDS011;3407;49.882;10.920;2023-02-28T09:59:20;8.10;;;6.70;;
6739;SDS011;3407;49.882;10.920;2023-02-28T10:04:47;5.93;;;5.33;;
6739;SDS011;3407;49.882;10.920;2023-02-28T10:09:51;7.83;;;6.43;;
6739;SDS011;3407;49.882;10.920;2023-02-28T10:14:50;7.67;;;6.03;;
6739;SDS011;3407;49.882;10.920;2023-02-28T10:29:44;9.70;;;5.63;;
6739;SDS011;3407;49.882;10.920;2023-02-28T10:34:44;10.00;;;6.17;;
6739;SDS011;3407;49.882;10.920;2023-02-28T10:39:42;8.70;;;6.43;;
6739;SDS011;3407;49.882;10.920;2023-02-28T10:44:40;7.27;;;6.10;;
6739;SDS011;3407;49.882;10.920;2023-02-28T10:49:36;7.20;;;6.17;;
6739;SDS011;3407;49.882;10.920;2023-02-28T10:54:35;6.90;;;5.63;;
6739;SDS011;3407;49.882;10.920;2023-02-28T10:59:32;6.63;;;5.57;;
6739;SDS011;3407;49.882;10.920;2023-02-28T11:09:35;6.77;;;5.67;;
6739;SDS011;3407;49.882;10.920;2023-02-28T11:14:36;6.07;;;5.33;;
6739;SDS011;3407;49.882;10.920;2023-02-28T11:19:45;7.37;;;5.70;;
6739;SDS011;3407;49.882;10.920;2023-02-28T11:24:43;6.87;;;5.70;;
6739;SDS011;3407;49.882;10.920;2023-02-28T11:29:46;7.83;;;5.73;;
6739;SDS011;3407;49.882;10.920;2023-02-28T11:34:42;6.67;;;5.97;;
6739;SDS011;3407;49.882;10.920;2023-02-28T11:39:39;6.83;;;5.70;;
6739;SDS011;3407;49.882;10.920;2023-02-28T11:55:16;9.47;;;5.77;;
6739;SDS011;3407;49.882;10.920;2023-02-28T12:00:31;5.83;;;5.33;;
6739;SDS011;3407;49.882;10.920;2023-02-28T12:11:22;6.80;;;5.20;;
6739;SDS011;3407;49.882;10.920;2023-02-28T12:21:30;6.53;;;5.37;;
6739;SDS011;3407;49.882;10.920;2023-02-28T12:26:44;7.60;;;5.83;;
6739;SDS011;3407;49.882;10.920;2023-02-28T12:31:41;6.73;;;5.87;;
6739;SDS011;3407;49.882;10.920;2023-02-28T12:36:43;6.20;;;5.13;;
6739;SDS011;3407;49.882;10.920;2023-02-28T12:41:44;8.73;;;5.43;;
6739;SDS011;3407;49.882;10.920;2023-02-28T12:46:45;6.80;;;5.57;;
6739;SDS011;3407;49.882;10.920;2023-02-28T12:51:44;7.07;;;5.57;;
6739;SDS011;3407;49.882;10.920;2023-02-28T12:56:43;8.40;;;5.53;;
6739;SDS011;3407;49.882;10.920;2023-02-28T13:01:49;6.97;;;5.43;;
6739;SDS011;3407;49.882;10.920;2023-02-28T13:07:08;7.67;;;5.33;;
6739;SDS011;3407;49.882;10.920;2023-02-28T13:12:27;10.00;;;6.50;;
6739;SDS011;3407;49.882;10.920;2023-02-28T13:17:23;6.40;;;5.50;;
6739;SDS011;3407;49.882;10.920;2023-02-28T13:27:40;7.20;;;5.40;;
6739;SDS011;3407;49.882;10.920;2023-02-28T13:32:36;7.80;;;5.83;;
6739;SDS011;3407;49.882;10.920;2023-02-28T13:37:34;6.50;;;5.57;;
6739;SDS011;3407;49.882;10.920;2023-02-28T13:47:45;6.07;;;5.13;;
6739;SDS011;3407;49.882;10.920;2023-02-28T14:08:24;5.90;;;5.30;;
6739;SDS011;3407;49.882;10.920;2023-02-28T14:18:48;7.60;;;5.60;;
6739;SDS011;3407;49.882;10.920;2023-02-28T14:23:52;9.13;;;5.80;;
6739;SDS011;3407;49.882;10.920;2023-02-28T14:29:36;8.93;;;6.73;;
6739;SDS011;3407;49.882;10.920;2023-02-28T14:39:45;7.10;;;6.33;;
6739;SDS011;3407;49.882;10.920;2023-02-28T14:44:42;7.83;;;5.70;;
6739;SDS011;3407;49.882;10.920;2023-02-28T14:49:48;7.17;;;5.77;;
6739;SDS011;3407;49.882;10.920;2023-02-28T14:54:43;7.87;;;5.70;;
6739;SDS011;3407;49.882;10.920;2023-02-28T14:59:40;7.73;;;5.80;;
6739;SDS011;3407;49.882;10.920;2023-02-28T15:04:36;6.97;;;5.50;;
6739;SDS011;3407;49.882;10.920;2023-02-28T15:09:32;6.83;;;5.63;;
6739;SDS011;3407;49.882;10.920;2023-02-28T15:14:27;8.57;;;6.13;;
6739;SDS011;3407;49.882;10.920;2023-02-28T15:19:26;8.13;;;6.30;;
6739;SDS011;3407;49.882;10.920;2023-02-28T15:24:30;8.37;;;5.67;;
6739;SDS011;3407;49.882;10.920;2023-02-28T15:29:41;10.07;;;5.07;;
6739;SDS011;3407;49.882;10.920;2023-02-28T15:34:43;10.37;;;6.20;;
6739;SDS011;3407;49.882;10.920;2023-02-28T15:39:41;8.37;;;5.33;;
6739;SDS011;3407;49.882;10.920;2023-02-28T15:44:39;8.70;;;5.80;;
6739;SDS011;3407;49.882;10.920;2023-02-28T15:50:09;6.53;;;5.83;;
6739;SDS011;3407;49.882;10.920;2023-02-28T15:55:12;7.07;;;5.23;;
6739;SDS011;3407;49.882;10.920;2023-02-28T16:00:15;6.27;;;5.27;;
6739;SDS011;3407;49.882;10.920;2023-02-28T16:05:25;6.50;;;4.87;;
6739;SDS011;3407;49.882;10.920;2023-02-28T16:10:29;5.87;;;5.20;;
6739;SDS011;3407;49.882;10.920;2023-02-28T16:15:26;8.47;;;6.00;;
6739;SDS011;3407;49.882;10.920;2023-02-28T16:20:24;6.43;;;5.73;;
6739;SDS011;3407;49.882;10.920;2023-02-28T16:25:26;12.10;;;5.63;;
6739;SDS011;3407;49.882;10.920;2023-02-28T16:30:29;6.03;;;5.00;;
6739;SDS011;3407;49.882;10.920;2023-02-28T16:35:27;6.77;;;5.50;;
6739;SDS011;3407;49.882;10.920;2023-02-28T16:40:24;9.33;;;5.63;;
6739;SDS011;3407;49.882;10.920;2023-02-28T16:45:22;6.30;;;5.10;;
6739;SDS011;3407;49.882;10.920;2023-02-28T16:50:21;5.60;;;5.10;;
6739;SDS011;3407;49.882;10.920;2023-02-28T16:55:22;8.63;;;5.77;;
6739;SDS011;3407;49.882;10.920;2023-02-28T17:00:18;7.00;;;6.27;;
6739;SDS011;3407;49.882;10.920;2023-02-28T17:05:14;6.47;;;5.47;;
6739;SDS011;3407;49.882;10.920;2023-02-28T17:15:09;7.27;;;5.80;;
6739;SDS011;3407;49.882;10.920;2023-02-28T17:20:07;7.77;;;5.63;;
6739;SDS011;3407;49.882;10.920;2023-02-28T17:25:07;7.43;;;5.93;;
6739;SDS011;3407;49.882;10.920;2023-02-28T17:35:11;12.27;;;6.53;;
6739;SDS011;3407;49.882;10.920;2023-02-28T17:40:14;7.63;;;6.20;;
6739;SDS011;3407;49.882;10.920;2023-02-28T17:45:11;11.20;;;6.77;;
6739;SDS011;3407;49.882;10.920;2023-02-28T17:50:11;5.93;;;5.33;;
6739;SDS011;3407;49.882;10.920;2023-02-28T17:55:09;8.40;;;6.03;;
6739;SDS011;3407;49.882;10.920;2023-02-28T18:00:06;10.27;;;7.23;;
6739;SDS011;3407;49.882;10.920;2023-02-28T18:05:02;9.83;;;6.23;;
6739;SDS011;3407;49.882;10.920;2023-02-28T18:09:59;8.03;;;6.23;;
6739;SDS011;3407;49.882;10.920;2023-02-28T18:14:54;7.60;;;6.13;;
6739;SDS011;3407;49.882;10.920;2023-02-28T18:19:50;7.57;;;6.40;;
6739;SDS011;3407;49.882;10.920;2023-02-28T18:24:46;8.47;;;6.47;;
6739;SDS011;3407;49.882;10.920;2023-02-28T18:29:43;8.57;;;5.80;;
6739;SDS011;3407;49.882;10.920;2023-02-28T18:34:38;8.23;;;6.77;;
6739;SDS011;3407;49.882;10.920;2023-02-28T18:39:34;13.10;;;7.17;;
6739;SDS011;3407;49.882;10.920;2023-02-28T18:44:29;12.80;;;7.40;;
6739;SDS011;3407;49.882;10.920;2023-02-28T18:49:25;9.17;;;6.90;;
6739;SDS011;3407;49.882;10.920;2023-02-28T18:54:20;8.10;;;6.77;;
6739;SDS011;3407;49.882;10.920;2023-02-28T18:59:16;10.07;;;7.23;;
6739;SDS011;3407;49.882;10.920;2023-02-28T19:04:12;10.23;;;7.53;;
6739;SDS011;3407;49.882;10.920;2023-02-28T19:09:08;10.50;;;7.60;;
6739;SDS011;3407;49.882;10.920;2023-02-28T19:14:04;7.97;;;6.90;;
6739;SDS011;3407;49.882;10.920;2023-02-28T19:19:00;10.73;;;7.53;;
6739;SDS011;3407;49.882;10.920;2023-02-28T19:23:55;13.43;;;7.63;;
6739;SDS011;3407;49.882;10.920;2023-02-28T19:28:51;12.53;;;7.73;;
6739;SDS011;3407;49.882;10.920;2023-02-28T19:33:47;10.20;;;7.43;;
6739;SDS011;3407;49.882;10.920;2023-02-28T19:38:43;10.53;;;7.23;;
6739;SDS011;3407;49.882;10.920;2023-02-28T19:43:38;11.23;;;7.70;;
6739;SDS011;3407;49.882;10.920;2023-02-28T19:48:34;12.07;;;7.97;;
6739;SDS011;3407;49.882;10.920;2023-02-28T19:53:30;8.10;;;6.87;;
6739;SDS011;3407;49.882;10.920;2023-02-28T19:58:27;10.40;;;8.00;;
6739;SDS011;3407;49.882;10.920;2023-02-28T20:03:23;9.70;;;7.23;;
6739;SDS011;3407;49.882;10.920;2023-02-28T20:08:18;11.93;;;8.23;;
6739;SDS011;3407;49.882;10.920;2023-02-28T20:13:14;11.57;;;7.97;;
6739;SDS011;3407;49.882;10.920;2023-02-28T20:18:09;11.90;;;8.30;;
6739;SDS011;3407;49.882;10.920;2023-02-28T20:23:05;12.40;;;8.03;;
6739;SDS011;3407;49.882;10.920;2023-02-28T20:28:00;11.43;;;8.20;;
6739;SDS011;3407;49.882;10.920;2023-02-28T20:32:56;9.23;;;7.87;;
6739;SDS011;3407;49.882;10.920;2023-02-28T20:37:51;14.97;;;8.20;;
6739;SDS011;3407;49.882;10.920;2023-02-28T20:42:47;10.47;;;8.27;;
6739;SDS011;3407;49.882;10.920;2023-02-28T20:47:42;13.77;;;8.73;;
6739;SDS011;3407;49.882;10.920;2023-02-28T20:52:38;12.53;;;8.97;;
6739;SDS011;3407;49.882;10.920;2023-02-28T20:57:34;11.40;;;8.67;;
6739;SDS011;3407;49.882;10.920;2023-02-28T21:02:29;11.30;;;7.83;;
6739;SDS011;3407;49.882;10.920;2023-02-28T21:07:26;11.83;;;7.77;;
6739;SDS011;3407;49.882;10.920;2023-02-28T21:12:22;11.37;;;8.60;;
6739;SDS011;3407;49.882;10.920;2023-02-28T21:17:18;16.50;;;9.73;;
6739;SDS011;3407;49.882;10.920;2023-02-28T21:22:13;14.43;;;8.77;;
6739;SDS011;3407;49.882;10.920;2023-02-28T21:27:09;11.20;;;8.77;;
6739;SDS011;3407;49.882;10.920;2023-02-28T21:32:05;14.73;;;11.63;;
6739;SDS011;3407;49.882;10.920;2023-02-28T21:37:01;19.63;;;13.87;;
6739;SDS011;3407;49.882;10.920;2023-02-28T21:41:57;20.10;;;12.10;;
6739;SDS011;3407;49.882;10.920;2023-02-28T21:46:57;15.17;;;10.33;;
6739;SDS011;3407;49.882;10.920;2023-02-28T21:51:56;14.70;;;10.53;;
6739;SDS011;3407;49.882;10.920;2023-02-28T21:56:52;17.17;;;11.47;;
6739;SDS011;3407;49.882;10.920;2023-02-28T22:01:49;15.20;;;10.20;;
6739;SDS011;3407;49.882;10.920;2023-02-28T22:06:46;14.73;;;10.03;;
6739;SDS011;3407;49.882;10.920;2023-02-28T22:11:43;16.53;;;10.53;;
6739;SDS011;3407;49.882;10.920;2023-02-28T22:16:39;15.37;;;10.37;;
6739;SDS011;3407;49.882;10.920;2023-02-28T22:21:35;19.43;;;11.73;;
6739;SDS011;3407;49.882;10.920;2023-02-28T22:26:32;15.70;;;9.53;;
6739;SDS011;3407;49.882;10.920;2023-02-28T22:31:30;12.67;;;9.87;;
6739;SDS011;3407;49.882;10.920;2023-02-28T22:36:27;17.50;;;10.67;;
6739;SDS011;3407;49.882;10.920;2023-02-28T22:41:23;13.13;;;9.70;;
6739;SDS011;3407;49.882;10.920;2023-02-28T22:46:21;15.77;;;9.63;;
6739;SDS011;3407;49.882;10.920;2023-02-28T22:51:19;20.27;;;10.63;;
6739;SDS011;3407;49.882;10.920;2023-02-28T22:56:16;17.57;;;11.10;;
6739;SDS011;3407;49.882;10.920;2023-02-28T23:01:14;16.00;;;10.37;;
6739;SDS011;3407;49.882;10.920;2023-02-28T23:06:14;13.50;;;10.67;;
6739;SDS011;3407;49.882;10.920;2023-02-28T23:11:21;14.87;;;10.27;;
6739;SDS011;3407;49.882;10.920;2023-02-28T23:16:38;21.27;;;11.70;;
6739;SDS011;3407;49.882;10.920;2023-02-28T23:21:44;19.20;;;11.43;;
6739;SDS011;3407;49.882;10.920;2023-02-28T23:26:41;19.03;;;11.60;;
6739;SDS011;3407;49.882;10.920;2023-02-28T23:31:38;20.30;;;11.40;;
6739;SDS011;3407;49.882;10.920;2023-02-28T23:36:34;19.40;;;11.60;;
6739;SDS011;3407;49.882;10.920;2023-02-28T23:41:31;17.67;;;10.33;;
6739;SDS011;3407;49.882;10.920;2023-02-28T23:46:26;16.80;;;10.67;;
6739;SDS011;3407;49.882;10.920;2023-02-28T23:51:22;18.97;;;11.23;;
6739;SDS011;3407;49.882;10.920;2023-02-28T23:56:19;14.83;;;10.70;;
